Private Wetterstation Wechselburg
Wetterdaten: Sonntag, 28.03.2021
Datum Zeit Temp. +2m Bodentemp. Temp.+5cm Temp. Wind Windchill X Diff Temp. Feuchte +2m Feuchte +5cm Luftdruck Regen Wind Richtung Richtung Sonnenschein Taupunkt Windchill Windben
28.03.2021 00:00 2,7 C 7,4 C 2,0 C 2,4 C 1,8 C 0,0 C 87 % 92 % 1030,6 hPa 0,0 l/m 1,3 km/h (1 Bft) S-SO 157 0 min 0,8 C 1,8 C 0,0 km/h (0 Bft)
28.03.2021 00:05 2,8 C 7,5 C 2,0 C 2,5 C 1,9 C 0,0 C 87 % 92 % 1030,6 hPa 0,0 l/m 1,6 km/h (1 Bft) S 180 0 min 0,9 C 1,9 C 2,1 km/h (1 Bft)
28.03.2021 00:10 2,8 C 7,4 C 2,1 C 2,5 C 1,9 C 0,0 C 87 % 92 % 1030,4 hPa 0,0 l/m 1,3 km/h (1 Bft) SW 225 0 min 0,9 C 1,9 C 0,0 km/h (0 Bft)
28.03.2021 00:15 2,8 C 7,4 C 2,0 C 2,5 C 1,8 C 0,0 C 87 % 92 % 1030,4 hPa 0,0 l/m 0,8 km/h (0 Bft) SW 225 0 min 0,9 C 1,8 C 1,9 km/h (1 Bft)
28.03.2021 00:20 2,8 C 7,4 C 1,9 C 2,4 C 1,6 C 0,0 C 87 % 92 % 1030,4 hPa 0,0 l/m 0,5 km/h (0 Bft) W-SW 247 0 min 0,9 C 1,6 C 0,0 km/h (0 Bft)
28.03.2021 00:25 2,9 C 7,4 C 1,7 C 2,4 C 1,4 C 0,0 C 86 % 92 % 1030,4 hPa 0,0 l/m 0,5 km/h (0 Bft) SW 225 0 min 0,8 C 1,4 C 1,6 km/h (1 Bft)
28.03.2021 00:30 2,8 C 7,4 C 1,7 C 2,3 C 1,3 C 0,0 C 86 % 92 % 1030,4 hPa 0,0 l/m 0,3 km/h (0 Bft) S-SW 202 0 min 0,7 C 1,3 C 0,0 km/h (0 Bft)
28.03.2021 00:35 2,7 C 7,4 C 1,6 C 2,2 C 1,2 C 0,0 C 86 % 92 % 1030,4 hPa 0,0 l/m 0,2 km/h (0 Bft) O-SO 112 0 min 0,6 C 1,2 C 0,0 km/h (0 Bft)
28.03.2021 00:40 2,7 C 7,4 C 1,7 C 2,2 C 1,1 C 0,0 C 86 % 92 % 1030,4 hPa 0,0 l/m 0,8 km/h (0 Bft) SW 225 0 min 0,6 C 1,1 C 8,4 km/h (2 Bft)
28.03.2021 00:45 2,7 C 7,4 C 1,5 C 2,1 C 1,0 C 0,0 C 86 % 92 % 1030,4 hPa 0,0 l/m 1,1 km/h (1 Bft) SW 225 0 min 0,6 C 1,0 C 0,0 km/h (0 Bft)
28.03.2021 00:50 2,5 C 7,4 C 1,3 C 1,9 C 0,7 C 0,0 C 86 % 92 % 1030,6 hPa 0,0 l/m 0,6 km/h (0 Bft) SW 225 0 min 0,4 C 0,7 C 0,0 km/h (0 Bft)
28.03.2021 00:55 2,4 C 7,4 C 1,1 C 1,8 C 0,5 C 0,0 C 85 % 92 % 1030,6 hPa 0,0 l/m 0,0 km/h (0 Bft) O-SO 112 0 min 0,1 C 0,5 C 0,0 km/h (0 Bft)
28.03.2021 01:00 2,3 C 7,4 C 0,9 C 1,7 C 0,4 C 0,0 C 85 % 92 % 1030,6 hPa 0,0 l/m 0,0 km/h (0 Bft) S 180 0 min 0,0 C 0,4 C 0,0 km/h (0 Bft)
28.03.2021 01:05 2,3 C 7,4 C 0,7 C 1,6 C 0,3 C 0,0 C 85 % 92 % 1030,6 hPa 0,0 l/m 0,0 km/h (0 Bft) O-SO 112 0 min 0,0 C 0,3 C 0,0 km/h (0 Bft)
28.03.2021 01:10 2,1 C 7,5 C 0,7 C 1,5 C 0,2 C 0,0 C 85 % 92 % 1031,1 hPa 0,0 l/m 0,0 km/h (0 Bft) S 180 0 min -0,2 C 0,2 C 0,0 km/h (0 Bft)
28.03.2021 01:15 2,1 C 7,5 C 0,6 C 1,4 C 0,1 C 0,0 C 85 % 92 % 1031,1 hPa 0,0 l/m 0,0 km/h (0 Bft) S 180 0 min -0,2 C 0,1 C 0,0 km/h (0 Bft)
28.03.2021 01:20 1,9 C 7,5 C 0,5 C 1,2 C -0,1 C 0,0 C 85 % 92 % 1031,1 hPa 0,0 l/m 0,0 km/h (0 Bft) O-SO 112 0 min -0,3 C -0,1 C 0,0 km/h (0 Bft)
28.03.2021 01:25 1,9 C 7,5 C 0,4 C 1,2 C -0,1 C 0,0 C 85 % 92 % 1031,1 hPa 0,0 l/m 0,0 km/h (0 Bft) O-SO 112 0 min -0,3 C -0,1 C 0,0 km/h (0 Bft)
28.03.2021 01:30 1,9 C 7,5 C 0,4 C 1,2 C -0,1 C 0,0 C 86 % 92 % 1031,1 hPa 0,0 l/m 0,0 km/h (0 Bft) S 180 0 min -0,2 C -0,1 C 0,0 km/h (0 Bft)
28.03.2021 01:35 1,7 C 7,5 C 0,3 C 1,1 C -0,1 C 0,0 C 86 % 92 % 1031,1 hPa 0,0 l/m 0,0 km/h (0 Bft) S 180 0 min -0,4 C -0,1 C 0,0 km/h (0 Bft)
28.03.2021 01:40 1,6 C 7,4 C 0,3 C 1,0 C -0,2 C 0,0 C 86 % 92 % 1031,1 hPa 0,0 l/m 0,0 km/h (0 Bft) S 180 0 min -0,5 C -0,2 C 0,0 km/h (0 Bft)
28.03.2021 01:45 1,6 C 7,4 C 0,3 C 1,0 C -0,2 C 0,0 C 86 % 92 % 1031,1 hPa 0,0 l/m 0,0 km/h (0 Bft) SO 135 0 min -0,5 C -0,2 C 0,0 km/h (0 Bft)
28.03.2021 01:50 1,6 C 7,4 C 0,3 C 1,0 C -0,2 C 0,0 C 86 % 92 % 1030,7 hPa 0,0 l/m 0,2 km/h (0 Bft) S 180 0 min -0,5 C -0,2 C 1,6 km/h (1 Bft)
28.03.2021 01:55 1,6 C 7,4 C 0,3 C 1,0 C -0,1 C 0,0 C 86 % 92 % 1030,7 hPa 0,0 l/m 0,2 km/h (0 Bft) S 180 0 min -0,5 C -0,1 C 0,0 km/h (0 Bft)
28.03.2021 03:00 1,5 C 7,4 C 0,1 C 1,0 C -0,1 C 0,0 C 86 % 92 % 1030,7 hPa 0,0 l/m 0,0 km/h (0 Bft) O-SO 112 0 min -0,6 C -0,1 C 0,0 km/h (0 Bft)
28.03.2021 03:05 1,4 C 7,4 C 0,1 C 0,9 C -0,2 C 0,0 C 86 % 93 % 1030,7 hPa 0,0 l/m 0,0 km/h (0 Bft) S-SW 202 0 min -0,7 C -0,2 C 0,0 km/h (0 Bft)
28.03.2021 03:10 1,5 C 7,4 C 0,1 C 0,9 C -0,2 C 0,0 C 86 % 93 % 1030,9 hPa 0,0 l/m 0,2 km/h (0 Bft) S 180 0 min -0,6 C -0,2 C 0,0 km/h (0 Bft)
28.03.2021 03:15 1,5 C 7,4 C 0,1 C 0,9 C -0,2 C 0,0 C 86 % 93 % 1030,9 hPa 0,0 l/m 0,2 km/h (0 Bft) NO 45 0 min -0,6 C -0,2 C 0,0 km/h (0 Bft)
28.03.2021 03:20 1,4 C 7,4 C 0,1 C 0,8 C -0,3 C 0,0 C 86 % 92 % 1030,9 hPa 0,0 l/m 0,0 km/h (0 Bft) NO 45 0 min -0,7 C -0,3 C 0,0 km/h (0 Bft)
28.03.2021 03:25 1,4 C 7,4 C 0,0 C 0,9 C -0,2 C 0,0 C 86 % 93 % 1030,9 hPa 0,0 l/m 0,0 km/h (0 Bft) NO 45 0 min -0,7 C -0,2 C 0,0 km/h (0 Bft)
28.03.2021 03:30 1,3 C 7,4 C 0,0 C 0,8 C -0,3 C 0,0 C 86 % 93 % 1030,8 hPa 0,0 l/m 0,0 km/h (0 Bft) O 90 0 min -0,8 C -0,3 C 0,0 km/h (0 Bft)
28.03.2021 03:35 1,2 C 7,4 C -0,1 C 0,7 C -0,3 C 0,0 C 86 % 93 % 1030,8 hPa 0,0 l/m 0,0 km/h (0 Bft) O 90 0 min -0,9 C -0,3 C 0,0 km/h (0 Bft)
28.03.2021 03:40 1,2 C 7,2 C -0,1 C 0,6 C -0,5 C 0,0 C 86 % 93 % 1030,8 hPa 0,0 l/m 0,0 km/h (0 Bft) O-NO 67 0 min -0,9 C -0,5 C 0,0 km/h (0 Bft)
28.03.2021 03:45 1,1 C 7,2 C -0,2 C 0,6 C -0,5 C 0,0 C 86 % 92 % 1030,8 hPa 0,0 l/m 0,0 km/h (0 Bft) O-NO 67 0 min -1,0 C -0,5 C 0,0 km/h (0 Bft)
28.03.2021 03:50 1,0 C 7,2 C -0,2 C 0,4 C -0,7 C 0,0 C 86 % 92 % 1030,9 hPa 0,0 l/m 0,0 km/h (0 Bft) O-NO 67 0 min -1,1 C -0,7 C 0,0 km/h (0 Bft)
28.03.2021 03:55 1,1 C 7,2 C -0,2 C 0,5 C -0,7 C 0,0 C 87 % 92 % 1030,9 hPa 0,0 l/m 0,0 km/h (0 Bft) O-NO 67 0 min -0,8 C -0,7 C 0,0 km/h (0 Bft)
28.03.2021 04:00 1,0 C 7,2 C -0,3 C 0,5 C -0,6 C 0,0 C 86 % 92 % 1030,9 hPa 0,0 l/m 0,0 km/h (0 Bft) O-NO 67 0 min -1,1 C -0,6 C 0,0 km/h (0 Bft)
28.03.2021 04:05 0,9 C 7,2 C -0,4 C 0,4 C -0,6 C 0,0 C 87 % 92 % 1030,9 hPa 0,0 l/m 0,0 km/h (0 Bft) O-NO 67 0 min -1,0 C -0,6 C 0,0 km/h (0 Bft)
28.03.2021 04:10 0,9 C 7,2 C -0,4 C 0,4 C -0,7 C 0,0 C 87 % 92 % 1030,8 hPa 0,0 l/m 0,0 km/h (0 Bft) NO 45 0 min -1,0 C -0,7 C 0,0 km/h (0 Bft)
28.03.2021 04:15 0,8 C 7,2 C -0,4 C 0,3 C -0,7 C 0,0 C 87 % 92 % 1030,8 hPa 0,0 l/m 0,0 km/h (0 Bft) NO 45 0 min -1,1 C -0,7 C 0,0 km/h (0 Bft)
28.03.2021 04:20 0,8 C 7,2 C -0,4 C 0,3 C -0,7 C 0,0 C 87 % 92 % 1030,8 hPa 0,0 l/m 0,0 km/h (0 Bft) O-SO 112 0 min -1,1 C -0,7 C 0,0 km/h (0 Bft)
28.03.2021 04:25 0,8 C 7,2 C -0,4 C 0,3 C -0,7 C 0,0 C 87 % 92 % 1030,8 hPa 0,0 l/m 0,0 km/h (0 Bft) O-SO 112 0 min -1,1 C -0,7 C 0,0 km/h (0 Bft)
28.03.2021 04:30 0,8 C 7,2 C -0,5 C 0,3 C -0,7 C 0,0 C 87 % 92 % 1030,8 hPa 0,0 l/m 0,0 km/h (0 Bft) O-SO 112 0 min -1,1 C -0,7 C 0,0 km/h (0 Bft)
28.03.2021 04:35 0,8 C 7,2 C -0,5 C 0,3 C -0,7 C 0,0 C 87 % 92 % 1030,8 hPa 0,0 l/m 0,0 km/h (0 Bft) O-SO 112 0 min -1,1 C -0,7 C 0,0 km/h (0 Bft)
28.03.2021 04:40 0,9 C 7,1 C -0,5 C 0,4 C -0,7 C 0,0 C 87 % 92 % 1030,8 hPa 0,0 l/m 0,0 km/h (0 Bft) O-SO 112 0 min -1,0 C -0,7 C 0,0 km/h (0 Bft)
28.03.2021 04:45 0,8 C 7,1 C -0,5 C 0,3 C -0,7 C 0,0 C 87 % 92 % 1030,8 hPa 0,0 l/m 0,0 km/h (0 Bft) O-SO 112 0 min -1,1 C -0,7 C 0,0 km/h (0 Bft)
28.03.2021 04:50 0,8 C 7,1 C -0,4 C 0,3 C -0,7 C 0,0 C 87 % 92 % 1030,9 hPa 0,0 l/m 0,0 km/h (0 Bft) SO 135 0 min -1,1 C -0,7 C 1,6 km/h (1 Bft)
28.03.2021 04:55 0,9 C 7,2 C -0,3 C 0,4 C -0,6 C 0,0 C 87 % 92 % 1030,9 hPa 0,0 l/m 0,2 km/h (0 Bft) O-NO 67 0 min -1,0 C -0,6 C 0,0 km/h (0 Bft)
28.03.2021 05:00 0,8 C 7,1 C -0,4 C 0,3 C -0,6 C 0,0 C 87 % 92 % 1030,9 hPa 0,0 l/m 0,2 km/h (0 Bft) S-SO 157 0 min -1,1 C -0,6 C 0,0 km/h (0 Bft)
28.03.2021 05:05 0,8 C 7,1 C -0,4 C 0,3 C -0,7 C 0,0 C 87 % 92 % 1030,9 hPa 0,0 l/m 0,2 km/h (0 Bft) S-SO 157 0 min -1,1 C -0,7 C 0,0 km/h (0 Bft)
28.03.2021 05:10 0,7 C 7,1 C -0,4 C 0,2 C -0,7 C 0,0 C 87 % 92 % 1030,8 hPa 0,0 l/m 0,0 km/h (0 Bft) O-SO 112 0 min -1,2 C -0,7 C 0,0 km/h (0 Bft)
28.03.2021 05:15 0,8 C 7,1 C -0,3 C 0,3 C -0,7 C 0,0 C 87 % 92 % 1030,8 hPa 0,0 l/m 0,0 km/h (0 Bft) SO 135 0 min -1,1 C -0,7 C 0,0 km/h (0 Bft)
28.03.2021 05:20 0,7 C 7,1 C -0,3 C 0,3 C -0,6 C 0,0 C 87 % 92 % 1030,8 hPa 0,0 l/m 0,0 km/h (0 Bft) S 180 0 min -1,2 C -0,6 C 1,6 km/h (1 Bft)
28.03.2021 05:25 0,8 C 7,1 C -0,2 C 0,4 C -0,5 C 0,0 C 87 % 92 % 1030,8 hPa 0,0 l/m 0,3 km/h (0 Bft) S 180 0 min -1,1 C -0,5 C 0,0 km/h (0 Bft)
28.03.2021 05:30 0,8 C 7,1 C -0,2 C 0,4 C -0,4 C 0,0 C 87 % 92 % 1030,8 hPa 0,0 l/m 0,3 km/h (0 Bft) S 180 0 min -1,1 C -0,4 C 0,0 km/h (0 Bft)
28.03.2021 05:35 0,8 C 7,1 C -0,2 C 0,4 C -0,4 C 0,0 C 87 % 92 % 1030,8 hPa 0,0 l/m 0,2 km/h (0 Bft) SW 225 0 min -1,1 C -0,4 C 0,0 km/h (0 Bft)
28.03.2021 05:40 0,8 C 7,1 C -0,2 C 0,3 C -0,6 C 0,0 C 87 % 92 % 1030,8 hPa 0,0 l/m 0,0 km/h (0 Bft) S-SW 202 0 min -1,1 C -0,6 C 0,0 km/h (0 Bft)
28.03.2021 05:45 0,8 C 7,1 C -0,4 C 0,3 C -0,7 C 0,0 C 87 % 92 % 1030,8 hPa 0,0 l/m 0,0 km/h (0 Bft) SW 225 0 min -1,1 C -0,7 C 0,0 km/h (0 Bft)
28.03.2021 05:50 0,8 C 7,1 C -0,3 C 0,3 C -0,6 C 0,0 C 87 % 92 % 1030,9 hPa 0,0 l/m 0,3 km/h (0 Bft) S 180 0 min -1,1 C -0,6 C 1,8 km/h (1 Bft)
28.03.2021 05:55 0,8 C 7,1 C -0,1 C 0,4 C -0,3 C 0,0 C 87 % 92 % 1030,9 hPa 0,0 l/m 0,8 km/h (0 Bft) S 180 0 min -1,1 C -0,3 C 0,0 km/h (0 Bft)
28.03.2021 06:00 0,8 C 7,0 C 0,1 C 0,5 C -0,1 C 0,0 C 87 % 92 % 1030,9 hPa 0,0 l/m 1,1 km/h (1 Bft) S-SO 157 0 min -1,1 C -0,1 C 3,5 km/h (1 Bft)
28.03.2021 06:05 0,9 C 7,0 C 0,3 C 0,6 C 0,1 C 0,0 C 87 % 92 % 1030,9 hPa 0,0 l/m 1,3 km/h (1 Bft) S-SW 202 0 min -1,0 C 0,1 C 3,2 km/h (1 Bft)
28.03.2021 06:10 1,1 C 7,0 C 0,4 C 0,8 C 0,2 C 0,0 C 88 % 92 % 1030,9 hPa 0,0 l/m 2,1 km/h (1 Bft) SO 135 0 min -0,7 C 0,2 C 6,0 km/h (2 Bft)
28.03.2021 06:15 1,2 C 7,0 C 0,5 C 0,9 C 0,3 C 0,0 C 88 % 92 % 1030,9 hPa 0,0 l/m 2,3 km/h (1 Bft) S-SO 157 0 min -0,6 C 0,3 C 1,9 km/h (1 Bft)
28.03.2021 06:20 1,2 C 7,0 C 0,6 C 0,9 C 0,4 C 0,0 C 88 % 92 % 1030,9 hPa 0,0 l/m 1,4 km/h (1 Bft) SO 135 0 min -0,6 C 0,4 C 0,0 km/h (0 Bft)
28.03.2021 06:25 1,3 C 7,0 C 0,6 C 1,0 C 0,3 C 0,0 C 88 % 92 % 1030,9 hPa 0,0 l/m 0,5 km/h (0 Bft) SO 135 0 min -0,5 C 0,3 C 0,0 km/h (0 Bft)
28.03.2021 06:30 1,2 C 7,0 C 0,6 C 0,9 C 0,2 C 0,0 C 88 % 92 % 1030,7 hPa 0,0 l/m 0,6 km/h (0 Bft) S-SO 157 0 min -0,6 C 0,2 C 3,2 km/h (1 Bft)
28.03.2021 06:35 1,2 C 7,0 C 0,6 C 0,9 C 0,2 C 0,0 C 88 % 92 % 1030,7 hPa 0,0 l/m 1,0 km/h (0 Bft) S-SO 157 0 min -0,6 C 0,2 C 0,0 km/h (0 Bft)
28.03.2021 06:40 1,3 C 7,0 C 0,4 C 0,9 C 0,2 C 0,0 C 88 % 92 % 1030,7 hPa 0,0 l/m 0,6 km/h (0 Bft) S-SO 157 0 min -0,5 C 0,2 C 0,0 km/h (0 Bft)
28.03.2021 06:45 1,3 C 7,0 C 0,5 C 0,9 C 0,1 C 0,0 C 88 % 92 % 1030,7 hPa 0,0 l/m 0,2 km/h (0 Bft) S-SO 157 0 min -0,5 C 0,1 C 0,0 km/h (0 Bft)
28.03.2021 06:50 1,2 C 7,0 C 0,3 C 0,8 C 0,1 C 0,0 C 88 % 92 % 1030,8 hPa 0,0 l/m 0,2 km/h (0 Bft) S-SO 157 0 min -0,6 C 0,1 C 0,0 km/h (0 Bft)
28.03.2021 06:55 1,2 C 7,0 C 0,3 C 0,8 C 0,0 C 0,0 C 88 % 92 % 1030,8 hPa 0,0 l/m 0,0 km/h (0 Bft) S-SO 157 0 min -0,6 C 0,0 C 0,0 km/h (0 Bft)
28.03.2021 07:00 1,1 C 7,0 C 0,3 C 0,7 C 0,0 C 0,0 C 88 % 92 % 1030,8 hPa 0,0 l/m 0,0 km/h (0 Bft) O 90 0 min -0,7 C 0,0 C 0,0 km/h (0 Bft)
28.03.2021 07:05 1,1 C 7,0 C 0,3 C 0,7 C 0,0 C 0,0 C 88 % 92 % 1030,8 hPa 0,0 l/m 0,0 km/h (0 Bft) S-SO 157 0 min -0,7 C 0,0 C 0,0 km/h (0 Bft)
28.03.2021 07:10 1,1 C 7,0 C 0,3 C 0,7 C 0,0 C 0,0 C 88 % 92 % 1031,0 hPa 0,0 l/m 0,0 km/h (0 Bft) O-NO 67 0 min -0,7 C 0,0 C 0,0 km/h (0 Bft)
28.03.2021 07:15 1,1 C 6,9 C 0,3 C 0,7 C 0,0 C 0,0 C 88 % 92 % 1031,0 hPa 0,0 l/m 0,0 km/h (0 Bft) SW 225 0 min -0,7 C 0,0 C 0,0 km/h (0 Bft)
28.03.2021 07:20 1,1 C 6,9 C 0,4 C 0,8 C 0,2 C 0,0 C 88 % 92 % 1031,0 hPa 0,0 l/m 0,0 km/h (0 Bft) S-SO 157 0 min -0,7 C 0,2 C 0,0 km/h (0 Bft)
28.03.2021 07:25 1,1 C 6,9 C 0,5 C 0,8 C 0,3 C 0,0 C 88 % 92 % 1031,0 hPa 0,0 l/m 0,0 km/h (0 Bft) S 180 0 min -0,7 C 0,3 C 0,0 km/h (0 Bft)
28.03.2021 07:30 1,2 C 6,9 C 0,6 C 1,0 C 0,7 C 0,0 C 88 % 92 % 1031,2 hPa 0,0 l/m 0,0 km/h (0 Bft) S 180 0 min -0,6 C 0,7 C 0,0 km/h (0 Bft)
28.03.2021 07:35 1,3 C 6,9 C 0,7 C 1,1 C 0,8 C 0,0 C 88 % 92 % 1031,2 hPa 0,0 l/m 0,0 km/h (0 Bft) S 180 0 min -0,5 C 0,8 C 0,0 km/h (0 Bft)
28.03.2021 07:40 1,2 C 6,9 C 0,9 C 1,2 C 1,2 C 0,0 C 88 % 92 % 1031,2 hPa 0,0 l/m 0,0 km/h (0 Bft) S-SO 157 0 min -0,6 C 1,2 C 0,0 km/h (0 Bft)
28.03.2021 07:45 1,3 C 6,9 C 0,9 C 1,3 C 1,3 C 0,0 C 88 % 92 % 1031,2 hPa 0,0 l/m 0,0 km/h (0 Bft) S-SO 157 0 min -0,5 C 1,3 C 0,0 km/h (0 Bft)
28.03.2021 07:50 1,4 C 6,9 C 1,1 C 1,4 C 1,3 C 0,0 C 88 % 92 % 1031,1 hPa 0,0 l/m 0,2 km/h (0 Bft) S-SO 157 0 min -0,4 C 1,3 C 2,6 km/h (1 Bft)
28.03.2021 07:55 1,5 C 6,9 C 1,3 C 1,6 C 1,6 C 0,1 C 88 % 92 % 1031,1 hPa 0,0 l/m 0,5 km/h (0 Bft) S-SO 157 0 min -0,3 C 1,6 C 0,0 km/h (0 Bft)
28.03.2021 08:00 1,6 C 6,8 C 1,5 C 2,3 C 2,3 C 0,7 C 88 % 92 % 1031,1 hPa 0,0 l/m 0,5 km/h (0 Bft) SO 135 0 min -0,2 C 2,3 C 0,0 km/h (0 Bft)
28.03.2021 08:05 1,7 C 6,8 C 1,6 C 2,6 C 2,6 C 0,9 C 88 % 92 % 1031,1 hPa 0,0 l/m 0,2 km/h (0 Bft) O 90 0 min -0,1 C 2,6 C 0,0 km/h (0 Bft)
28.03.2021 08:10 1,9 C 6,8 C 1,7 C 3,0 C 3,0 C 1,1 C 88 % 92 % 1031,1 hPa 0,0 l/m 0,0 km/h (0 Bft) S-SO 157 0 min 0,1 C 3,0 C 2,7 km/h (1 Bft)
28.03.2021 08:15 2,0 C 6,8 C 1,8 C 3,2 C 3,2 C 1,2 C 88 % 92 % 1031,1 hPa 0,0 l/m 0,0 km/h (0 Bft) S-SO 157 0 min 0,2 C 3,2 C 0,0 km/h (0 Bft)
28.03.2021 08:20 2,1 C 6,8 C 2,0 C 4,1 C 4,1 C 2,0 C 88 % 92 % 1031,1 hPa 0,0 l/m 0,2 km/h (0 Bft) S-SO 157 0 min 0,3 C 4,1 C 1,8 km/h (1 Bft)
28.03.2021 08:25 2,3 C 6,8 C 2,1 C 4,4 C 4,4 C 2,1 C 88 % 92 % 1031,1 hPa 0,0 l/m 0,5 km/h (0 Bft) SO 135 0 min 0,5 C 4,4 C 2,3 km/h (1 Bft)
28.03.2021 08:30 2,4 C 6,8 C 2,3 C 3,9 C 3,9 C 1,5 C 88 % 92 % 1031,4 hPa 0,0 l/m 0,8 km/h (0 Bft) S-SO 157 0 min 0,6 C 3,9 C 3,2 km/h (1 Bft)
28.03.2021 08:35 2,4 C 6,8 C 2,4 C 3,6 C 3,6 C 1,2 C 88 % 92 % 1031,4 hPa 0,0 l/m 0,6 km/h (0 Bft) S-SO 157 0 min 0,6 C 3,6 C 0,0 km/h (0 Bft)
28.03.2021 08:40 2,6 C 6,6 C 2,7 C 3,8 C 3,8 C 1,2 C 88 % 92 % 1031,4 hPa 0,0 l/m 0,3 km/h (0 Bft) SO 135 0 min 0,8 C 3,8 C 0,0 km/h (0 Bft)
28.03.2021 08:45 2,7 C 6,6 C 2,8 C 3,9 C 3,9 C 1,2 C 88 % 92 % 1031,4 hPa 0,0 l/m 0,2 km/h (0 Bft) S 180 0 min 0,9 C 3,9 C 0,0 km/h (0 Bft)
28.03.2021 08:50 2,8 C 6,6 C 3,0 C 4,1 C 4,1 C 1,3 C 87 % 92 % 1031,5 hPa 0,0 l/m 0,2 km/h (0 Bft) S 180 0 min 0,9 C 4,1 C 0,0 km/h (0 Bft)
28.03.2021 08:55 3,1 C 6,6 C 3,2 C 4,3 C 4,3 C 1,2 C 87 % 92 % 1031,5 hPa 0,0 l/m 1,0 km/h (0 Bft) W-SW 247 0 min 1,2 C 4,3 C 4,2 km/h (1 Bft)
28.03.2021 09:00 3,2 C 6,6 C 3,4 C 5,0 C 5,0 C 1,8 C 87 % 92 % 1031,5 hPa 0,0 l/m 1,8 km/h (1 Bft) S-SO 157 0 min 1,2 C 5,0 C 1,9 km/h (1 Bft)
28.03.2021 09:05 3,5 C 6,6 C 3,5 C 5,2 C 5,2 C 1,7 C 87 % 92 % 1031,5 hPa 0,0 l/m 2,3 km/h (1 Bft) SO 135 0 min 1,5 C 5,2 C 3,9 km/h (1 Bft)
28.03.2021 09:10 3,6 C 6,6 C 3,7 C 5,2 C 5,2 C 1,6 C 87 % 92 % 1031,5 hPa 0,0 l/m 2,1 km/h (1 Bft) W 270 0 min 1,6 C 5,2 C 1,6 km/h (1 Bft)
28.03.2021 09:15 3,8 C 6,6 C 3,9 C 5,5 C 5,5 C 1,7 C 87 % 92 % 1031,5 hPa 0,0 l/m 2,3 km/h (1 Bft) NO 45 0 min 1,8 C 5,5 C 0,0 km/h (0 Bft)
28.03.2021 09:20 4,1 C 6,6 C 4,2 C 5,7 C 5,7 C 1,6 C 87 % 92 % 1031,5 hPa 0,0 l/m 1,8 km/h (1 Bft) O 90 0 min 2,1 C 5,7 C 1,6 km/h (1 Bft)
28.03.2021 09:25 4,3 C 6,6 C 4,4 C 6,0 C 6,0 C 1,7 C 87 % 92 % 1031,5 hPa 0,0 l/m 1,1 km/h (1 Bft) S-SO 157 0 min 2,3 C 6,0 C 0,0 km/h (0 Bft)
28.03.2021 09:30 4,5 C 6,5 C 4,6 C 6,5 C 6,5 C 2,0 C 86 % 93 % 1031,2 hPa 0,0 l/m 1,6 km/h (1 Bft) W-SW 247 0 min 2,4 C 6,5 C 6,3 km/h (2 Bft)
28.03.2021 09:35 4,7 C 6,5 C 4,7 C 7,0 C 7,0 C 2,3 C 86 % 93 % 1031,2 hPa 0,0 l/m 2,3 km/h (1 Bft) SW 225 0 min 2,6 C 7,0 C 6,3 km/h (2 Bft)
28.03.2021 09:40 5,0 C 6,5 C 5,0 C 7,9 C 7,9 C 2,9 C 86 % 92 % 1031,2 hPa 0,0 l/m 3,5 km/h (1 Bft) S-SO 157 0 min 2,9 C 7,9 C 11,3 km/h (2 Bft)
28.03.2021 09:45 5,1 C 6,5 C 5,2 C 8,2 C 8,2 C 3,1 C 85 % 92 % 1031,2 hPa 0,0 l/m 4,5 km/h (1 Bft) SW 225 0 min 2,8 C 8,2 C 4,7 km/h (1 Bft)
28.03.2021 09:50 5,3 C 6,5 C 5,4 C 7,9 C 7,9 C 2,6 C 84 % 91 % 1031,5 hPa 0,0 l/m 4,3 km/h (1 Bft) N-NO 22 0 min 2,8 C 7,9 C 15,1 km/h (3 Bft)
28.03.2021 09:55 5,4 C 6,5 C 5,6 C 7,7 C 7,7 C 2,3 C 84 % 91 % 1031,5 hPa 0,0 l/m 4,5 km/h (1 Bft) S-SO 157 0 min 2,9 C 7,7 C 5,1 km/h (1 Bft)
28.03.2021 10:00 5,7 C 6,5 C 6,0 C 8,8 C 8,8 C 3,1 C 83 % 91 % 1031,5 hPa 0,0 l/m 3,1 km/h (1 Bft) O-NO 67 0 min 3,0 C 8,8 C 2,3 km/h (1 Bft)
28.03.2021 10:05 5,9 C 6,5 C 6,1 C 9,2 C 9,2 C 3,3 C 83 % 91 % 1031,5 hPa 0,0 l/m 2,7 km/h (1 Bft) O-NO 67 5 min 3,2 C 9,2 C 4,2 km/h (1 Bft)
28.03.2021 10:10 6,0 C 6,5 C 6,2 C 9,1 C 9,1 C 3,1 C 82 % 90 % 1031,2 hPa 0,0 l/m 3,9 km/h (1 Bft) O-SO 112 0 min 3,2 C 9,1 C 9,3 km/h (2 Bft)
28.03.2021 10:15 6,0 C 6,5 C 6,2 C 8,7 C 8,7 C 2,7 C 82 % 91 % 1031,2 hPa 0,0 l/m 3,1 km/h (1 Bft) SW 225 0 min 3,2 C 8,7 C 6,6 km/h (2 Bft)
28.03.2021 10:20 6,1 C 6,5 C 6,2 C 8,5 C 8,5 C 2,4 C 81 % 90 % 1031,2 hPa 0,0 l/m 2,6 km/h (1 Bft) S-SW 202 0 min 3,1 C 8,5 C 4,7 km/h (1 Bft)
28.03.2021 10:25 6,1 C 6,5 C 6,3 C 8,2 C 8,2 C 2,1 C 81 % 90 % 1031,2 hPa 0,0 l/m 4,0 km/h (1 Bft) SW 225 0 min 3,1 C 8,2 C 7,6 km/h (2 Bft)
28.03.2021 10:30 6,3 C 6,5 C 6,9 C 8,0 C 8,0 C 1,7 C 80 % 90 % 1031,3 hPa 0,0 l/m 6,0 km/h (2 Bft) W-SW 247 0 min 3,1 C 7,2 C 15,4 km/h (3 Bft)
28.03.2021 10:35 6,3 C 6,3 C 7,9 C 8,2 C 8,2 C 1,9 C 79 % 89 % 1031,3 hPa 0,0 l/m 6,9 km/h (2 Bft) W-SW 247 0 min 2,9 C 7,2 C 3,4 km/h (1 Bft)
28.03.2021 10:40 6,5 C 6,3 C 8,8 C 8,1 C 8,1 C 1,6 C 79 % 87 % 1031,3 hPa 0,0 l/m 6,3 km/h (2 Bft) SW 225 0 min 3,1 C 7,2 C 18,3 km/h (3 Bft)
28.03.2021 10:45 6,6 C 6,4 C 9,1 C 8,7 C 8,7 C 2,1 C 79 % 84 % 1031,3 hPa 0,0 l/m 5,0 km/h (1 Bft) S 180 0 min 3,2 C 8,3 C 11,1 km/h (2 Bft)
28.03.2021 10:50 6,8 C 6,3 C 9,5 C 9,6 C 9,6 C 2,8 C 78 % 81 % 1031,9 hPa 0,0 l/m 3,9 km/h (1 Bft) N-NO 22 0 min 3,2 C 9,6 C 3,1 km/h (1 Bft)
28.03.2021 10:55 6,9 C 6,4 C 9,5 C 9,6 C 9,6 C 2,7 C 78 % 82 % 1031,9 hPa 0,0 l/m 4,2 km/h (1 Bft) W 270 0 min 3,3 C 9,6 C 4,2 km/h (1 Bft)
28.03.2021 11:00 7,1 C 6,4 C 9,4 C 9,5 C 9,5 C 2,4 C 77 % 82 % 1031,9 hPa 0,0 l/m 4,8 km/h (1 Bft) O-NO 67 0 min 3,3 C 9,3 C 4,3 km/h (1 Bft)
28.03.2021 11:05 7,2 C 6,4 C 9,3 C 9,7 C 9,7 C 2,5 C 77 % 81 % 1031,9 hPa 0,0 l/m 5,1 km/h (1 Bft) SW 225 0 min 3,4 C 9,4 C 8,7 km/h (2 Bft)
28.03.2021 11:10 7,3 C 6,4 C 9,3 C 9,8 C 9,8 C 2,5 C 76 % 78 % 1031,6 hPa 0,0 l/m 4,8 km/h (1 Bft) O-NO 67 0 min 3,4 C 9,6 C 8,9 km/h (2 Bft)
28.03.2021 11:15 7,5 C 6,4 C 9,2 C 9,8 C 9,8 C 2,3 C 76 % 79 % 1031,6 hPa 0,0 l/m 5,8 km/h (2 Bft) W-SW 247 0 min 3,5 C 9,3 C 2,3 km/h (1 Bft)
28.03.2021 11:17 8,5 C 6,5 C 9,9 C 8,0 C 10,3 C 0,0 C 70 % 72 % 1032,5 hPa 0,0 l/m 7,9 km/h (2 Bft) W-SW 247 0 min 3,3 C 10,3 C 10,3 km/h (2 Bft)
28.03.2021 11:22 8,7 C 6,5 C 10,1 C 11,1 C 11,1 C 2,4 C 70 % 71 % 1032,5 hPa 0,0 l/m 6,6 km/h (2 Bft) W-SW 247 0 min 3,5 C 11,1 C 4,8 km/h (1 Bft)
28.03.2021 11:27 8,8 C 6,5 C 10,2 C 11,5 C 11,5 C 2,7 C 70 % 69 % 1032,6 hPa 0,0 l/m 5,8 km/h (2 Bft) SW 225 0 min 3,6 C 11,5 C 6,8 km/h (2 Bft)
28.03.2021 11:32 8,7 C 6,5 C 10,3 C 11,3 C 11,3 C 2,6 C 69 % 68 % 1032,6 hPa 0,0 l/m 6,8 km/h (2 Bft) SW 225 0 min 3,3 C 11,3 C 14,2 km/h (3 Bft)
28.03.2021 12:37 8,7 C 6,5 C 10,3 C 11,1 C 11,1 C 2,4 C 69 % 68 % 1032,6 hPa 0,0 l/m 7,6 km/h (2 Bft) S-SW 202 0 min 3,3 C 11,1 C 11,4 km/h (2 Bft)
28.03.2021 12:40 8,7 C 6,5 C 10,3 C 11,1 C 11,1 C 2,4 C 69 % 68 % 1032,6 hPa 0,0 l/m 7,6 km/h (2 Bft) S-SW 202 0 min 3,3 C 11,1 C 11,4 km/h (2 Bft)
28.03.2021 12:45 8,7 C 6,5 C 10,3 C 11,1 C 11,1 C 2,4 C 69 % 68 % 1032,6 hPa 0,0 l/m 7,6 km/h (2 Bft) S-SW 202 0 min 3,3 C 11,1 C 11,4 km/h (2 Bft)
28.03.2021 12:50 8,7 C 6,5 C 10,2 C 10,9 C 10,3 C 2,2 C 68 % 66 % 1031,0 hPa 0,0 l/m 9,3 km/h (2 Bft) SW 225 0 min 3,1 C 10,3 C 13,7 km/h (3 Bft)
28.03.2021 12:55 8,8 C 6,5 C 10,2 C 10,3 C 10,3 C 1,5 C 68 % 66 % 1031,0 hPa 0,0 l/m 9,0 km/h (2 Bft) SW 225 0 min 3,2 C 10,3 C 10,3 km/h (2 Bft)
28.03.2021 13:00 8,9 C 6,5 C 10,5 C 10,9 C 10,9 C 2,0 C 68 % 66 % 1031,0 hPa 0,0 l/m 8,0 km/h (2 Bft) W-NW 292 0 min 3,3 C 10,9 C 18,7 km/h (3 Bft)
28.03.2021 13:05 8,9 C 6,5 C 10,3 C 11,0 C 10,7 C 2,1 C 68 % 65 % 1031,0 hPa 0,0 l/m 8,2 km/h (2 Bft) W-SW 247 0 min 3,3 C 10,7 C 15,9 km/h (3 Bft)
28.03.2021 13:10 8,9 C 6,5 C 10,3 C 10,7 C 10,7 C 1,8 C 68 % 65 % 1031,4 hPa 0,0 l/m 8,2 km/h (2 Bft) W-SW 247 0 min 3,3 C 10,7 C 15,9 km/h (3 Bft)
28.03.2021 13:15 8,9 C 6,6 C 10,3 C 10,7 C 10,7 C 1,8 C 68 % 65 % 1031,4 hPa 0,0 l/m 8,2 km/h (2 Bft) W-SW 247 0 min 3,3 C 10,7 C 15,9 km/h (3 Bft)
28.03.2021 13:20 8,8 C 6,6 C 10,2 C 10,7 C 10,3 C 1,9 C 68 % 66 % 1031,4 hPa 0,0 l/m 8,0 km/h (2 Bft) SW 225 0 min 3,2 C 10,3 C 11,1 km/h (2 Bft)
28.03.2021 13:25 8,9 C 6,6 C 10,2 C 10,6 C 10,6 C 1,7 C 68 % 66 % 1031,4 hPa 0,0 l/m 7,1 km/h (2 Bft) O-NO 67 0 min 3,3 C 10,6 C 3,9 km/h (1 Bft)
28.03.2021 13:30 9,1 C 6,6 C 10,3 C 10,7 C 10,7 C 1,6 C 68 % 66 % 1031,8 hPa 0,0 l/m 7,6 km/h (2 Bft) W-SW 247 0 min 3,5 C 10,7 C 10,9 km/h (2 Bft)
28.03.2021 13:35 8,9 C 6,6 C 10,2 C 10,7 C 10,3 C 1,8 C 67 % 66 % 1031,8 hPa 0,0 l/m 8,9 km/h (2 Bft) S 180 0 min 3,1 C 10,3 C 14,0 km/h (3 Bft)
28.03.2021 13:40 9,0 C 6,6 C 10,3 C 10,3 C 10,3 C 1,3 C 68 % 66 % 1031,8 hPa 0,0 l/m 9,2 km/h (2 Bft) NW 315 0 min 3,4 C 10,3 C 3,9 km/h (1 Bft)
28.03.2021 13:45 9,0 C 6,6 C 10,4 C 10,9 C 10,8 C 1,9 C 68 % 66 % 1031,8 hPa 0,0 l/m 8,7 km/h (2 Bft) SW 225 0 min 3,4 C 10,8 C 17,2 km/h (3 Bft)
28.03.2021 13:50 9,3 C 6,7 C 10,7 C 11,4 C 11,4 C 2,1 C 68 % 65 % 1031,7 hPa 0,0 l/m 8,0 km/h (2 Bft) O-NO 67 0 min 3,7 C 11,4 C 11,3 km/h (2 Bft)
28.03.2021 13:55 9,3 C 6,7 C 10,8 C 11,7 C 11,6 C 2,4 C 68 % 66 % 1031,7 hPa 0,0 l/m 8,2 km/h (2 Bft) W-SW 247 0 min 3,7 C 11,6 C 9,2 km/h (2 Bft)
28.03.2021 14:00 9,7 C 6,7 C 11,5 C 13,1 C 13,1 C 3,4 C 69 % 67 % 1031,7 hPa 0,0 l/m 5,5 km/h (1 Bft) S 180 5 min 4,3 C 13,1 C 10,9 km/h (2 Bft)
28.03.2021 14:05 9,9 C 6,7 C 12,1 C 14,4 C 14,4 C 4,5 C 69 % 65 % 1031,7 hPa 0,0 l/m 3,7 km/h (1 Bft) NO 45 5 min 4,5 C 14,4 C 9,2 km/h (2 Bft)
28.03.2021 14:11 10,3 C 6,7 C 11,9 C 15,0 C 15,0 C 4,7 C 68 % 63 % 1031,7 hPa 0,0 l/m 3,4 km/h (1 Bft) N 0 6 min 4,7 C 15,0 C 3,2 km/h (1 Bft)
28.03.2021 14:26 10,3 C 6,7 C 11,8 C 14,6 C 14,3 C 4,3 C 66 % 63 % 1031,7 hPa 0,0 l/m 8,5 km/h (2 Bft) SW 225 15 min 4,2 C 14,3 C 21,2 km/h (4 Bft)
28.03.2021 14:38 10,9 C 6,7 C 12,7 C 15,2 C 15,7 C 4,3 C 65 % 62 % 1031,4 hPa 0,0 l/m 8,4 km/h (2 Bft) SW 225 12 min 4,6 C 15,7 C 11,3 km/h (2 Bft)
28.03.2021 14:40 10,9 C 6,7 C 12,7 C 15,7 C 15,7 C 4,8 C 65 % 62 % 1031,4 hPa 0,0 l/m 8,4 km/h (2 Bft) SW 225 2 min 4,6 C 15,7 C 11,3 km/h (2 Bft)
28.03.2021 14:45 11,1 C 6,8 C 12,6 C 15,9 C 15,9 C 4,8 C 64 % 60 % 1031,4 hPa 0,0 l/m 7,7 km/h (2 Bft) SW 225 5 min 4,6 C 15,9 C 9,2 km/h (2 Bft)
28.03.2021 14:50 10,9 C 6,7 C 12,3 C 14,6 C 14,6 C 3,7 C 64 % 60 % 1030,9 hPa 0,0 l/m 6,9 km/h (2 Bft) N 360 5 min 4,4 C 14,6 C 3,9 km/h (1 Bft)
28.03.2021 14:55 10,9 C 6,7 C 12,2 C 14,3 C 14,3 C 3,4 C 64 % 61 % 1030,9 hPa 0,0 l/m 5,3 km/h (1 Bft) NO 45 5 min 4,4 C 14,3 C 1,8 km/h (1 Bft)
28.03.2021 15:00 11,1 C 6,9 C 12,2 C 14,3 C 14,3 C 3,2 C 64 % 61 % 1030,9 hPa 0,0 l/m 3,5 km/h (1 Bft) S 180 0 min 4,6 C 14,3 C 4,2 km/h (1 Bft)
28.03.2021 15:05 11,1 C 6,9 C 12,1 C 14,2 C 14,2 C 3,1 C 63 % 60 % 1030,9 hPa 0,0 l/m 3,5 km/h (1 Bft) S 180 0 min 4,3 C 14,2 C 3,1 km/h (1 Bft)
28.03.2021 15:10 11,1 C 6,9 C 12,1 C 13,9 C 13,9 C 2,8 C 63 % 61 % 1030,4 hPa 0,0 l/m 4,3 km/h (1 Bft) W-SW 247 0 min 4,3 C 13,9 C 10,6 km/h (2 Bft)
28.03.2021 15:15 11,0 C 6,9 C 11,9 C 13,2 C 13,2 C 2,2 C 63 % 61 % 1030,4 hPa 0,0 l/m 6,3 km/h (2 Bft) SW 225 0 min 4,2 C 13,2 C 9,5 km/h (2 Bft)
28.03.2021 15:20 10,9 C 6,9 C 11,8 C 12,8 C 12,4 C 1,9 C 63 % 61 % 1030,4 hPa 0,0 l/m 8,0 km/h (2 Bft) S-SW 202 0 min 4,1 C 12,4 C 13,2 km/h (3 Bft)
28.03.2021 15:25 10,8 C 6,9 C 11,8 C 12,4 C 12,4 C 1,6 C 63 % 61 % 1030,4 hPa 0,0 l/m 7,2 km/h (2 Bft) SW 225 0 min 4,0 C 12,4 C 6,6 km/h (2 Bft)
28.03.2021 15:30 10,9 C 6,9 C 11,8 C 12,4 C 12,4 C 1,5 C 63 % 62 % 1030,2 hPa 0,0 l/m 6,6 km/h (2 Bft) SW 225 0 min 4,1 C 12,4 C 5,6 km/h (1 Bft)
28.03.2021 15:35 10,9 C 6,9 C 11,8 C 12,8 C 12,8 C 1,9 C 64 % 62 % 1030,2 hPa 0,0 l/m 5,5 km/h (1 Bft) SW 225 0 min 4,4 C 12,8 C 6,0 km/h (2 Bft)
28.03.2021 15:40 11,0 C 7,0 C 11,8 C 12,8 C 12,8 C 1,8 C 63 % 62 % 1030,2 hPa 0,0 l/m 4,7 km/h (1 Bft) SW 225 0 min 4,2 C 12,8 C 5,5 km/h (1 Bft)
28.03.2021 15:45 11,1 C 7,0 C 11,8 C 12,8 C 12,8 C 1,7 C 63 % 62 % 1030,2 hPa 0,0 l/m 5,5 km/h (1 Bft) SW 225 0 min 4,3 C 12,8 C 9,3 km/h (2 Bft)
28.03.2021 15:50 11,1 C 7,0 C 11,6 C 12,7 C 12,7 C 1,6 C 63 % 63 % 1030,4 hPa 0,0 l/m 5,1 km/h (1 Bft) W-NW 292 0 min 4,3 C 12,7 C 4,2 km/h (1 Bft)
28.03.2021 15:55 11,0 C 7,0 C 11,5 C 12,6 C 12,6 C 1,6 C 63 % 63 % 1030,4 hPa 0,0 l/m 4,8 km/h (1 Bft) SW 225 0 min 4,2 C 12,6 C 4,3 km/h (1 Bft)
28.03.2021 16:00 11,0 C 7,0 C 11,6 C 12,7 C 12,7 C 1,7 C 63 % 63 % 1030,6 hPa 0,0 l/m 4,5 km/h (1 Bft) S-SW 202 0 min 4,2 C 12,7 C 6,3 km/h (2 Bft)
28.03.2021 16:05 11,0 C 7,0 C 11,6 C 12,7 C 12,7 C 1,7 C 63 % 63 % 1030,6 hPa 0,0 l/m 4,5 km/h (1 Bft) S-SW 202 0 min 4,2 C 12,7 C 6,3 km/h (2 Bft)
28.03.2021 16:11 11,1 C 7,0 C 11,7 C 12,7 C 12,7 C 1,6 C 61 % 60 % 1030,6 hPa 0,0 l/m 5,6 km/h (1 Bft) N 0 0 min 3,9 C 12,7 C 5,1 km/h (1 Bft)
28.03.2021 16:26 11,5 C 7,1 C 12,1 C 13,3 C 13,3 C 1,8 C 62 % 62 % 1030,1 hPa 0,0 l/m 5,0 km/h (1 Bft) S 180 0 min 4,5 C 13,3 C 2,9 km/h (1 Bft)
28.03.2021 16:38 11,7 C 7,1 C 12,3 C 14,1 C 14,1 C 2,4 C 60 % 59 % 1029,9 hPa 0,0 l/m 4,7 km/h (1 Bft) N-NO 22 0 min 4,2 C 14,1 C 5,8 km/h (2 Bft)
28.03.2021 16:40 11,7 C 7,1 C 12,3 C 14,1 C 14,1 C 2,4 C 60 % 59 % 1029,9 hPa 0,0 l/m 4,7 km/h (1 Bft) N-NO 22 0 min 4,2 C 14,1 C 5,8 km/h (2 Bft)
28.03.2021 16:45 11,9 C 7,1 C 12,3 C 14,3 C 14,3 C 2,4 C 60 % 59 % 1029,9 hPa 0,0 l/m 3,9 km/h (1 Bft) S-SW 202 0 min 4,4 C 14,3 C 10,6 km/h (2 Bft)
28.03.2021 16:50 11,8 C 7,2 C 12,1 C 14,1 C 14,1 C 2,3 C 60 % 60 % 1029,9 hPa 0,0 l/m 3,1 km/h (1 Bft) S 180 0 min 4,3 C 14,1 C 5,5 km/h (1 Bft)
28.03.2021 16:55 11,9 C 7,2 C 12,2 C 14,1 C 14,1 C 2,2 C 60 % 60 % 1029,9 hPa 0,0 l/m 2,6 km/h (1 Bft) S 180 0 min 4,4 C 14,1 C 5,5 km/h (1 Bft)
28.03.2021 17:00 12,0 C 7,2 C 12,1 C 14,6 C 14,6 C 2,6 C 59 % 58 % 1029,9 hPa 0,0 l/m 2,9 km/h (1 Bft) S 180 0 min 4,2 C 14,6 C 2,6 km/h (1 Bft)
28.03.2021 17:05 12,0 C 7,2 C 12,0 C 14,4 C 14,4 C 2,4 C 59 % 59 % 1029,9 hPa 0,0 l/m 2,9 km/h (1 Bft) O-SO 112 0 min 4,2 C 14,4 C 0,0 km/h (0 Bft)
28.03.2021 17:10 12,3 C 7,2 C 12,1 C 14,5 C 14,5 C 2,2 C 59 % 59 % 1029,9 hPa 0,0 l/m 2,1 km/h (1 Bft) SW 225 0 min 4,5 C 14,5 C 5,5 km/h (1 Bft)
28.03.2021 17:15 12,2 C 7,2 C 12,0 C 14,1 C 14,1 C 1,9 C 58 % 59 % 1029,9 hPa 0,0 l/m 3,1 km/h (1 Bft) W 270 0 min 4,2 C 14,1 C 0,0 km/h (0 Bft)
28.03.2021 17:20 12,1 C 7,2 C 12,0 C 13,9 C 13,9 C 1,8 C 58 % 59 % 1029,8 hPa 0,0 l/m 4,5 km/h (1 Bft) S 180 0 min 4,1 C 13,9 C 8,7 km/h (2 Bft)
28.03.2021 17:25 12,0 C 7,2 C 11,9 C 13,6 C 13,6 C 1,6 C 58 % 59 % 1029,8 hPa 0,0 l/m 4,7 km/h (1 Bft) W-SW 247 0 min 4,0 C 13,6 C 7,2 km/h (2 Bft)
28.03.2021 17:30 12,0 C 7,2 C 11,7 C 13,1 C 13,1 C 1,1 C 58 % 59 % 1029,8 hPa 0,0 l/m 5,5 km/h (1 Bft) S 180 0 min 4,0 C 13,1 C 7,6 km/h (2 Bft)
28.03.2021 17:35 11,9 C 7,3 C 11,7 C 12,9 C 12,9 C 1,0 C 58 % 59 % 1029,8 hPa 0,0 l/m 5,3 km/h (1 Bft) SW 225 0 min 3,9 C 12,9 C 5,5 km/h (1 Bft)
28.03.2021 17:40 11,9 C 7,3 C 11,6 C 12,6 C 12,6 C 0,7 C 58 % 59 % 1030,2 hPa 0,0 l/m 5,1 km/h (1 Bft) W-NW 292 0 min 3,9 C 12,6 C 4,3 km/h (1 Bft)
28.03.2021 17:45 11,8 C 7,3 C 11,5 C 12,5 C 12,5 C 0,7 C 58 % 60 % 1030,2 hPa 0,0 l/m 5,1 km/h (1 Bft) SW 225 0 min 3,8 C 12,5 C 6,6 km/h (2 Bft)
28.03.2021 17:50 11,8 C 7,3 C 11,6 C 12,7 C 12,7 C 0,9 C 59 % 60 % 1030,2 hPa 0,0 l/m 4,7 km/h (1 Bft) S 180 0 min 4,1 C 12,7 C 4,3 km/h (1 Bft)
28.03.2021 17:55 11,9 C 7,3 C 11,6 C 12,8 C 12,8 C 0,9 C 58 % 59 % 1030,2 hPa 0,0 l/m 5,0 km/h (1 Bft) W-SW 247 0 min 3,9 C 12,8 C 6,0 km/h (2 Bft)
28.03.2021 18:00 11,9 C 7,3 C 11,6 C 12,9 C 12,9 C 1,0 C 58 % 59 % 1030,1 hPa 0,0 l/m 5,3 km/h (1 Bft) W-SW 247 0 min 3,9 C 12,9 C 7,6 km/h (2 Bft)
28.03.2021 18:05 11,9 C 7,3 C 11,6 C 12,9 C 12,9 C 1,0 C 57 % 58 % 1030,1 hPa 0,0 l/m 5,0 km/h (1 Bft) SW 225 0 min 3,7 C 12,9 C 8,5 km/h (2 Bft)
28.03.2021 18:11 12,0 C 7,3 C 11,5 C 12,9 C 12,9 C 0,9 C 57 % 58 % 1030,1 hPa 0,0 l/m 5,0 km/h (1 Bft) N 0 0 min 3,8 C 12,9 C 9,3 km/h (2 Bft)
28.03.2021 18:26 11,8 C 7,4 C 11,2 C 12,4 C 12,4 C 0,6 C 58 % 60 % 1029,9 hPa 0,0 l/m 4,5 km/h (1 Bft) S 180 0 min 3,8 C 12,4 C 6,1 km/h (2 Bft)
28.03.2021 18:38 11,6 C 7,4 C 10,9 C 11,8 C 11,8 C 0,2 C 58 % 61 % 1029,9 hPa 0,0 l/m 2,6 km/h (1 Bft) O-SO 112 0 min 3,6 C 11,8 C 3,2 km/h (1 Bft)
28.03.2021 18:40 11,6 C 7,4 C 10,9 C 11,8 C 11,8 C 0,2 C 58 % 61 % 1029,9 hPa 0,0 l/m 2,6 km/h (1 Bft) O-SO 112 0 min 3,6 C 11,8 C 3,2 km/h (1 Bft)
28.03.2021 18:45 11,7 C 7,4 C 10,9 C 11,7 C 11,7 C 0,0 C 59 % 61 % 1029,9 hPa 0,0 l/m 1,8 km/h (1 Bft) S-SO 157 0 min 4,0 C 11,7 C 0,0 km/h (0 Bft)
28.03.2021 18:50 11,5 C 7,4 C 10,8 C 11,5 C 11,5 C 0,0 C 59 % 62 % 1029,9 hPa 0,0 l/m 1,6 km/h (1 Bft) SW 225 0 min 3,8 C 11,5 C 0,0 km/h (0 Bft)
28.03.2021 18:55 11,5 C 7,4 C 10,7 C 11,5 C 11,4 C 0,0 C 59 % 62 % 1029,9 hPa 0,0 l/m 1,4 km/h (1 Bft) S-SO 157 0 min 3,8 C 11,4 C 0,0 km/h (0 Bft)
28.03.2021 19:00 11,4 C 7,4 C 10,7 C 11,4 C 11,3 C 0,0 C 60 % 62 % 1029,6 hPa 0,0 l/m 1,1 km/h (1 Bft) O-NO 67 0 min 3,9 C 11,3 C 0,0 km/h (0 Bft)
28.03.2021 19:05 11,4 C 7,4 C 10,6 C 11,3 C 11,2 C 0,0 C 60 % 62 % 1029,6 hPa 0,0 l/m 0,6 km/h (0 Bft) N-NO 22 0 min 3,9 C 11,2 C 0,0 km/h (0 Bft)
28.03.2021 19:10 11,3 C 7,4 C 10,5 C 11,2 C 11,1 C 0,0 C 60 % 63 % 1029,6 hPa 0,0 l/m 0,3 km/h (0 Bft) W 270 0 min 3,8 C 11,1 C 0,0 km/h (0 Bft)
28.03.2021 19:15 11,2 C 7,5 C 10,5 C 11,1 C 10,9 C 0,0 C 60 % 63 % 1029,6 hPa 0,0 l/m 0,6 km/h (0 Bft) W-SW 247 0 min 3,7 C 10,9 C 0,0 km/h (0 Bft)
28.03.2021 19:20 11,2 C 7,5 C 10,4 C 11,1 C 10,9 C 0,0 C 60 % 63 % 1029,6 hPa 0,0 l/m 0,6 km/h (0 Bft) S-SO 157 0 min 3,7 C 10,9 C 0,0 km/h (0 Bft)
28.03.2021 19:25 11,1 C 7,5 C 10,3 C 11,0 C 10,8 C 0,0 C 60 % 63 % 1029,6 hPa 0,0 l/m 0,8 km/h (0 Bft) S-SO 157 0 min 3,6 C 10,8 C 0,0 km/h (0 Bft)
28.03.2021 19:30 11,1 C 7,6 C 10,2 C 11,0 C 10,7 C 0,0 C 61 % 64 % 1029,6 hPa 0,0 l/m 1,4 km/h (1 Bft) SW 225 0 min 3,9 C 10,7 C 2,3 km/h (1 Bft)
28.03.2021 19:35 11,1 C 7,6 C 10,1 C 11,0 C 10,7 C 0,0 C 60 % 64 % 1029,6 hPa 0,0 l/m 2,4 km/h (1 Bft) S-SO 157 0 min 3,6 C 10,7 C 2,3 km/h (1 Bft)
28.03.2021 19:40 11,1 C 7,6 C 10,0 C 11,0 C 10,8 C 0,0 C 60 % 64 % 1029,3 hPa 0,0 l/m 2,9 km/h (1 Bft) SO 135 0 min 3,6 C 10,8 C 5,5 km/h (1 Bft)
28.03.2021 19:45 11,1 C 7,6 C 10,1 C 11,0 C 10,8 C 0,0 C 60 % 64 % 1029,3 hPa 0,0 l/m 2,7 km/h (1 Bft) SO 135 0 min 3,6 C 10,8 C 3,5 km/h (1 Bft)
28.03.2021 19:50 11,1 C 7,6 C 10,1 C 11,0 C 10,9 C 0,0 C 60 % 64 % 1029,3 hPa 0,0 l/m 2,9 km/h (1 Bft) O 90 0 min 3,6 C 10,9 C 0,0 km/h (0 Bft)
28.03.2021 19:55 11,0 C 7,6 C 10,0 C 10,9 C 10,8 C 0,0 C 60 % 64 % 1029,3 hPa 0,0 l/m 1,8 km/h (1 Bft) SO 135 0 min 3,5 C 10,8 C 0,0 km/h (0 Bft)
28.03.2021 20:00 11,0 C 7,6 C 9,9 C 10,9 C 10,6 C 0,0 C 60 % 64 % 1029,2 hPa 0,0 l/m 1,0 km/h (0 Bft) S-SO 157 0 min 3,5 C 10,6 C 3,4 km/h (1 Bft)
28.03.2021 20:05 10,9 C 7,6 C 9,7 C 10,8 C 10,5 C 0,0 C 60 % 65 % 1029,2 hPa 0,0 l/m 1,1 km/h (1 Bft) S-SO 157 0 min 3,4 C 10,5 C 1,6 km/h (1 Bft)
28.03.2021 20:11 10,8 C 7,6 C 9,6 C 10,6 C 10,3 C 0,0 C 60 % 65 % 1029,2 hPa 0,0 l/m 0,6 km/h (0 Bft) N 0 0 min 3,4 C 10,3 C 0,0 km/h (0 Bft)
28.03.2021 20:26 10,5 C 7,7 C 9,4 C 10,3 C 10,0 C 0,0 C 61 % 66 % 1029,6 hPa 0,0 l/m 0,2 km/h (0 Bft) S 180 0 min 3,3 C 10,0 C 1,6 km/h (1 Bft)
28.03.2021 20:38 10,5 C 7,7 C 9,1 C 10,3 C 10,0 C 0,0 C 62 % 68 % 1029,8 hPa 0,0 l/m 1,1 km/h (1 Bft) S-SO 157 0 min 3,5 C 10,0 C 2,9 km/h (1 Bft)
28.03.2021 20:45 10,4 C 7,7 C 9,1 C 10,3 C 10,1 C 0,0 C 62 % 68 % 1029,8 hPa 0,0 l/m 1,3 km/h (1 Bft) S 180 0 min 3,4 C 10,1 C 5,1 km/h (1 Bft)
28.03.2021 20:50 10,4 C 7,7 C 9,1 C 10,3 C 10,1 C 0,0 C 62 % 68 % 1029,8 hPa 0,0 l/m 1,9 km/h (1 Bft) S 180 0 min 3,4 C 10,1 C 3,2 km/h (1 Bft)
28.03.2021 20:55 10,4 C 7,7 C 9,1 C 10,3 C 10,1 C 0,0 C 62 % 68 % 1029,8 hPa 0,0 l/m 2,3 km/h (1 Bft) SO 135 0 min 3,4 C 10,1 C 2,9 km/h (1 Bft)
28.03.2021 21:00 10,4 C 7,7 C 9,2 C 10,3 C 10,2 C 0,0 C 62 % 68 % 1029,8 hPa 0,0 l/m 2,6 km/h (1 Bft) SW 225 0 min 3,4 C 10,2 C 2,7 km/h (1 Bft)
28.03.2021 21:05 10,4 C 7,7 C 9,1 C 10,3 C 10,2 C 0,0 C 62 % 68 % 1029,8 hPa 0,0 l/m 2,4 km/h (1 Bft) S-SO 157 0 min 3,4 C 10,2 C 0,0 km/h (0 Bft)
28.03.2021 21:10 10,4 C 7,7 C 9,2 C 10,3 C 10,2 C 0,0 C 62 % 67 % 1029,8 hPa 0,0 l/m 2,3 km/h (1 Bft) SW 225 0 min 3,4 C 10,2 C 3,7 km/h (1 Bft)
28.03.2021 21:15 10,4 C 7,7 C 9,2 C 10,3 C 10,2 C 0,0 C 62 % 67 % 1029,8 hPa 0,0 l/m 1,6 km/h (1 Bft) S 180 0 min 3,4 C 10,2 C 0,0 km/h (0 Bft)
28.03.2021 21:20 10,4 C 7,7 C 9,3 C 10,3 C 10,1 C 0,0 C 62 % 67 % 1030,4 hPa 0,0 l/m 1,1 km/h (1 Bft) O-NO 67 0 min 3,4 C 10,1 C 4,2 km/h (1 Bft)
28.03.2021 21:25 10,4 C 7,7 C 9,2 C 10,3 C 10,1 C 0,0 C 62 % 67 % 1030,4 hPa 0,0 l/m 1,6 km/h (1 Bft) S 180 0 min 3,4 C 10,1 C 4,8 km/h (1 Bft)
28.03.2021 21:30 10,5 C 7,7 C 9,1 C 10,4 C 10,1 C 0,0 C 62 % 67 % 1030,4 hPa 0,0 l/m 2,4 km/h (1 Bft) S 180 0 min 3,5 C 10,1 C 4,2 km/h (1 Bft)
28.03.2021 21:35 10,4 C 7,7 C 9,1 C 10,3 C 10,1 C 0,0 C 62 % 67 % 1030,4 hPa 0,0 l/m 2,4 km/h (1 Bft) SO 135 0 min 3,4 C 10,1 C 2,4 km/h (1 Bft)
28.03.2021 21:40 10,4 C 7,7 C 9,1 C 10,3 C 10,1 C 0,0 C 62 % 67 % 1030,1 hPa 0,0 l/m 2,4 km/h (1 Bft) S 180 0 min 3,4 C 10,1 C 2,7 km/h (1 Bft)
28.03.2021 21:45 10,3 C 7,7 C 9,1 C 10,2 C 10,0 C 0,0 C 62 % 68 % 1030,1 hPa 0,0 l/m 2,3 km/h (1 Bft) S-SO 157 0 min 3,3 C 10,0 C 1,6 km/h (1 Bft)
28.03.2021 21:50 10,3 C 7,8 C 9,1 C 10,2 C 9,9 C 0,0 C 62 % 67 % 1030,1 hPa 0,0 l/m 1,4 km/h (1 Bft) S-SW 202 0 min 3,3 C 9,9 C 0,0 km/h (0 Bft)
28.03.2021 21:55 10,2 C 7,8 C 9,0 C 10,0 C 9,7 C 0,0 C 62 % 67 % 1030,1 hPa 0,0 l/m 0,5 km/h (0 Bft) S-SO 157 0 min 3,3 C 9,7 C 0,0 km/h (0 Bft)
28.03.2021 22:00 10,0 C 7,8 C 8,9 C 9,8 C 9,5 C 0,0 C 63 % 67 % 1030,1 hPa 0,0 l/m 0,2 km/h (0 Bft) SO 135 0 min 3,3 C 9,5 C 0,0 km/h (0 Bft)
28.03.2021 22:05 10,0 C 7,8 C 8,9 C 9,8 C 9,4 C 0,0 C 63 % 68 % 1030,1 hPa 0,0 l/m 0,5 km/h (0 Bft) S 180 0 min 3,3 C 9,4 C 2,9 km/h (1 Bft)
28.03.2021 22:11 9,9 C 7,8 C 8,9 C 9,8 C 9,5 C 0,0 C 63 % 68 % 1030,1 hPa 0,0 l/m 0,8 km/h (0 Bft) N 0 0 min 3,2 C 9,5 C 0,0 km/h (0 Bft)
28.03.2021 22:26 9,9 C 7,8 C 8,8 C 9,7 C 9,2 C 0,0 C 64 % 68 % 1030,3 hPa 0,0 l/m 0,2 km/h (0 Bft) O-SO 112 0 min 3,4 C 9,2 C 2,1 km/h (1 Bft)
28.03.2021 22:38 9,7 C 7,8 C 8,8 C 9,6 C 9,3 C 0,0 C 65 % 68 % 1030,3 hPa 0,0 l/m 1,1 km/h (1 Bft) SW 225 0 min 3,4 C 9,3 C 0,0 km/h (0 Bft)
28.03.2021 22:40 9,7 C 7,8 C 8,8 C 9,6 C 9,3 C 0,0 C 65 % 68 % 1030,3 hPa 0,0 l/m 1,1 km/h (1 Bft) SW 225 0 min 3,4 C 9,3 C 0,0 km/h (0 Bft)
28.03.2021 22:45 9,7 C 7,8 C 8,7 C 9,6 C 9,3 C 0,0 C 65 % 68 % 1030,3 hPa 0,0 l/m 1,1 km/h (1 Bft) O-NO 67 0 min 3,4 C 9,3 C 0,0 km/h (0 Bft)
28.03.2021 22:50 9,7 C 7,8 C 8,7 C 9,5 C 9,2 C 0,0 C 65 % 68 % 1030,3 hPa 0,0 l/m 1,0 km/h (0 Bft) SW 225 0 min 3,4 C 9,2 C 3,2 km/h (1 Bft)
28.03.2021 22:55 9,7 C 7,8 C 8,6 C 9,5 C 9,2 C 0,0 C 65 % 69 % 1030,3 hPa 0,0 l/m 1,4 km/h (1 Bft) SW 225 0 min 3,4 C 9,2 C 1,9 km/h (1 Bft)
28.03.2021 23:00 9,4 C 7,8 C 8,4 C 9,3 C 9,0 C 0,0 C 65 % 70 % 1030,8 hPa 0,0 l/m 2,1 km/h (1 Bft) W-SW 247 0 min 3,2 C 9,0 C 0,0 km/h (0 Bft)
28.03.2021 23:05 9,3 C 7,8 C 8,2 C 9,2 C 8,9 C 0,0 C 66 % 70 % 1030,8 hPa 0,0 l/m 2,1 km/h (1 Bft) S-SW 202 0 min 3,3 C 8,9 C 3,1 km/h (1 Bft)
28.03.2021 23:10 9,2 C 7,8 C 8,1 C 9,0 C 8,7 C 0,0 C 67 % 71 % 1030,8 hPa 0,0 l/m 2,4 km/h (1 Bft) SW 225 0 min 3,4 C 8,7 C 5,8 km/h (2 Bft)
28.03.2021 23:15 9,3 C 7,8 C 8,1 C 9,2 C 8,9 C 0,0 C 67 % 71 % 1030,8 hPa 0,0 l/m 3,9 km/h (1 Bft) S-SW 202 0 min 3,5 C 8,9 C 5,3 km/h (1 Bft)
28.03.2021 23:20 9,5 C 7,8 C 8,3 C 9,4 C 9,1 C 0,0 C 66 % 71 % 1030,6 hPa 0,0 l/m 4,3 km/h (1 Bft) W-SW 247 0 min 3,5 C 9,1 C 0,0 km/h (0 Bft)
28.03.2021 23:25 9,5 C 7,8 C 8,4 C 9,4 C 9,2 C 0,0 C 66 % 71 % 1030,6 hPa 0,0 l/m 2,4 km/h (1 Bft) O-SO 112 0 min 3,5 C 9,2 C 0,0 km/h (0 Bft)
28.03.2021 23:30 9,5 C 7,8 C 8,5 C 9,4 C 9,2 C 0,0 C 66 % 70 % 1030,6 hPa 0,0 l/m 0,6 km/h (0 Bft) O-SO 112 0 min 3,5 C 9,2 C 3,5 km/h (1 Bft)
28.03.2021 23:35 9,7 C 7,8 C 8,6 C 9,6 C 9,3 C 0,0 C 66 % 70 % 1030,6 hPa 0,0 l/m 1,8 km/h (1 Bft) S-SW 202 0 min 3,7 C 9,3 C 2,9 km/h (1 Bft)
28.03.2021 23:40 9,7 C 7,8 C 8,5 C 9,6 C 9,4 C 0,0 C 66 % 70 % 1030,9 hPa 0,0 l/m 2,9 km/h (1 Bft) SO 135 0 min 3,7 C 9,4 C 4,0 km/h (1 Bft)
28.03.2021 23:45 9,7 C 7,8 C 8,5 C 9,6 C 9,4 C 0,0 C 66 % 71 % 1030,9 hPa 0,0 l/m 2,6 km/h (1 Bft) SO 135 0 min 3,7 C 9,4 C 4,2 km/h (1 Bft)
28.03.2021 23:50 9,6 C 7,8 C 8,3 C 9,5 C 9,3 C 0,0 C 66 % 71 % 1030,9 hPa 0,0 l/m 1,8 km/h (1 Bft) SW 225 0 min 3,6 C 9,3 C 2,3 km/h (1 Bft)
28.03.2021 23:55 9,5 C 7,8 C 8,3 C 9,4 C 9,2 C 0,0 C 66 % 71 % 1030,9 hPa 0,0 l/m 1,0 km/h (0 Bft) S-SO 157 0 min 3,5 C 9,2 C 3,7 km/h (1 Bft)
_ Min-Zeit 05:10 10:35 04:30 05:10 03:50 00:00 18:05 17:00 20:00 - 00:55 - - - 05:10 03:50 00:00
Minimum _ 0,7 C 6,3 C -0,5 C 0,2 C -0,7 C 0,0 C 57 % 58 % 1029,2 hPa - 0,0 km/h (0 Bft) - - - -1,2 C -0,7 C 0,0 km/h (0 Bft)
_ Max-Zeit 17:10 21:50 14:38 14:45 14:45 14:40 06:10 03:05 11:27 00:00 12:50 - - 14:26 14:11 14:45 14:26
Maximum _ 12,3 C 7,8 C 12,7 C 15,9 C 15,9 C 4,8 C 88 % 93 % 1032,6 hPa 0,0 l/m 9,3 km/h
SW (2 Bft)
- - 15 min 4,7 C 15,9 C 21,2 km/h
SW (4 Bft)
Durchschnitt _ 6,6 C 7,1 C 6,3 C 7,4 C 7,0 C 0,9 C 74 % 77 % 1030,8 hPa #0,0 l/m 2,7 km/h (1 Bft) SW - #1:05 h 2,1 C 7,0 C 3,9 km/h (1 Bft)
2021 www.wetterstation-wechselburg.de